Main page
METAR-TAF:

METAR-TAF

Airports :

Rovaniemi, Finland

Rovaniemi Airport

latitude: 66-34N, longitude: 025-50E, elevation: 197 m

Current weather observation

The report was made 13 minutes ago, at 21:20 UTC
Wind 10 kt from the West/Southwest
Temperature -11°C
Humidity 78%
Pressure 1010 hPa
Visibility 10 km or more
no clouds below 1500 m and no cumulonimbus

METAR: EFRO 212120Z AUTO 24010KT CAVOK M11/M14 Q1010

Time: 23:33 (21:33 UTC)

Forecast

The report was made 1 hour and 10 minutes ago, at 20:23 UTC
Forecast valid from 21 at 21 UTC to 22 at 21 UTC
Wind 8 kt from the West
Visibility 10 km or more
no clouds below 1500 m and no cumulonimbus
Becoming
from 22 at 19 UTC to 22 at 21 UTC
Visibility: 4000 m
light snow

TAF: EFRO 212023Z 2121/2221 26008KT CAVOK BECMG 2219/2221 4000 -SN

Weather observations and forecasts of more than 4000 airports (METAR and TAF reports).

The available stations are represented by yellow and red dots on the map.

Hover mouse over dot to see the name of the station.

Then click to see weather observations and forecasts.

To change the map : click on the green buttons with a black cross to zoom in, on the green button with a dash to zoom out, or on the green arrows for adjacent maps.


METAR-TAF: